createdAt,value
2022-09-25T00:01:09.901Z,97641.84
2022-09-25T00:03:37.270Z,97638.19
2022-09-25T00:06:18.900Z,97641.88
2022-09-25T00:08:49.363Z,97638.38
2022-09-25T00:11:34.684Z,97637.13
2022-09-25T00:14:02.232Z,97637.53
2022-09-25T00:16:30.831Z,97644.56
2022-09-25T00:19:16.751Z,97637.16
2022-09-25T00:21:43.642Z,97646.56
2022-09-25T00:24:11.674Z,97622.75
2022-09-25T00:26:42.145Z,97642.66
2022-09-25T00:29:13.636Z,97623.78
2022-09-25T00:31:40.269Z,97638.75
2022-09-25T00:34:06.922Z,97622.13
2022-09-25T00:36:34.216Z,97631.41
2022-09-25T00:39:00.846Z,97636.50
2022-09-25T00:41:30.131Z,97633.06
2022-09-25T00:43:58.490Z,97634.47
2022-09-25T00:46:34.822Z,97616.81
2022-09-25T00:49:04.060Z,97611.66
2022-09-25T00:51:38.906Z,97611.47
2022-09-25T00:54:07.085Z,97624.22
2022-09-25T00:56:40.353Z,97601.56
2022-09-25T00:59:11.655Z,97621.31
2022-09-25T01:01:38.562Z,97617.66
2022-09-25T01:04:05.768Z,97622.56
2022-09-25T01:06:32.696Z,97604.06
2022-09-25T01:08:59.617Z,97595.66
2022-09-25T01:11:26.181Z,97591.16
2022-09-25T01:13:58.809Z,97589.91
2022-09-25T01:16:53.250Z,97618.41
2022-09-25T01:19:43.242Z,97613.44
2022-09-25T01:22:47.114Z,97615.13
2022-09-25T01:25:25.902Z,97612.63
2022-09-25T01:28:19.537Z,97612.66
2022-09-25T01:30:52.981Z,97607.94
2022-09-25T01:33:54.661Z,97604.09
2022-09-25T01:36:34.896Z,97613.13
2022-09-25T01:39:14.762Z,97592.38
2022-09-25T01:42:17.197Z,97594.66
2022-09-25T01:44:52.350Z,97586.25
2022-09-25T01:47:26.467Z,97610.03
2022-09-25T01:50:01.352Z,97604.88
2022-09-25T01:52:37.694Z,97580.63
2022-09-25T01:55:36.207Z,97608.38
2022-09-25T01:58:10.482Z,97607.19
2022-09-25T02:00:44.490Z,97606.59
2022-09-25T02:03:25.676Z,97602.50
2022-09-25T02:05:59.211Z,97605.56
2022-09-25T02:08:40.966Z,97603.69
2022-09-25T02:11:08.973Z,97583.97
2022-09-25T02:13:55.675Z,97579.09
2022-09-25T02:16:32.389Z,97603.34
2022-09-25T02:19:34.339Z,97612.72
2022-09-25T02:22:10.625Z,97607.81
2022-09-25T02:24:49.392Z,97604.91
2022-09-25T02:27:18.760Z,97589.50
2022-09-25T02:29:45.340Z,97588.31
2022-09-25T02:32:19.162Z,97593.44
2022-09-25T02:34:46.254Z,97602.44
2022-09-25T02:37:14.497Z,97570.16
2022-09-25T02:39:42.971Z,97597.34
2022-09-25T02:42:15.281Z,97597.59
2022-09-25T02:44:57.048Z,97598.13
2022-09-25T02:47:35.761Z,97593.44
2022-09-25T02:50:26.727Z,97589.34
2022-09-25T02:53:11.790Z,97591.59
2022-09-25T02:55:50.528Z,97576.81
2022-09-25T02:58:44.976Z,97586.69
2022-09-25T03:01:15.000Z,97588.91
2022-09-25T03:03:43.052Z,97588.94
2022-09-25T03:06:10.647Z,97582.34
2022-09-25T03:08:43.210Z,97582.16
2022-09-25T03:11:12.635Z,97566.16
2022-09-25T03:13:40.269Z,97582.78
2022-09-25T03:16:20.831Z,97581.34
2022-09-25T03:18:48.127Z,97577.22
2022-09-25T03:21:14.959Z,97576.03
2022-09-25T03:23:41.584Z,97581.78
2022-09-25T03:26:08.130Z,97582.56
2022-09-25T03:28:35.089Z,97584.00
2022-09-25T03:31:08.111Z,97580.53
2022-09-25T03:33:40.493Z,97587.41
2022-09-25T03:36:07.247Z,97596.03
2022-09-25T03:38:33.966Z,97561.34
2022-09-25T03:41:00.562Z,97586.56
2022-09-25T03:43:33.631Z,97585.97
2022-09-25T03:46:00.255Z,97584.31
2022-09-25T03:48:30.308Z,97583.72
2022-09-25T03:50:57.748Z,97570.53
2022-09-25T03:53:33.674Z,97587.00
2022-09-25T03:56:05.923Z,97584.53
2022-09-25T03:58:32.989Z,97565.47
2022-09-25T04:00:59.935Z,97569.78
2022-09-25T04:03:29.530Z,97569.81
2022-09-25T04:06:00.548Z,97576.63
2022-09-25T04:08:28.725Z,97557.53
2022-09-25T04:11:00.963Z,97583.19
2022-09-25T04:13:33.588Z,97573.75
2022-09-25T04:16:02.096Z,97592.16
2022-09-25T04:18:32.568Z,97582.50
2022-09-25T04:21:05.659Z,97572.47
2022-09-25T04:23:32.700Z,97590.13
2022-09-25T04:26:02.324Z,97580.06
2022-09-25T04:28:32.938Z,97573.69
2022-09-25T04:31:03.955Z,97571.09
2022-09-25T04:33:46.379Z,97581.91
2022-09-25T04:36:13.274Z,97590.16
2022-09-25T04:38:39.854Z,97566.59
2022-09-25T04:41:08.165Z,97582.84
2022-09-25T04:43:35.287Z,97584.03
2022-09-25T04:46:06.773Z,97586.69
2022-09-25T04:48:34.202Z,97591.16
2022-09-25T04:51:05.274Z,97587.66
2022-09-25T04:53:35.054Z,97593.56
2022-09-25T04:56:15.366Z,97576.34
2022-09-25T04:58:48.516Z,97584.16
2022-09-25T05:01:17.304Z,97590.13
2022-09-25T05:03:43.991Z,97588.09
2022-09-25T05:06:10.587Z,97586.88
2022-09-25T05:08:37.164Z,97582.59
2022-09-25T05:11:04.063Z,97600.41
2022-09-25T05:13:33.578Z,97602.06
2022-09-25T05:16:02.399Z,97595.66
2022-09-25T05:18:28.958Z,97596.69
2022-09-25T05:20:55.947Z,97591.75
2022-09-25T05:23:23.902Z,97604.31
2022-09-25T05:25:55.137Z,97612.31
2022-09-25T05:28:23.567Z,97598.50
2022-09-25T05:30:50.865Z,97611.06
2022-09-25T05:33:19.071Z,97603.22
2022-09-25T05:35:46.465Z,97599.72
2022-09-25T05:38:13.047Z,97603.81
2022-09-25T05:40:39.719Z,97603.03
2022-09-25T05:43:06.872Z,97619.63
2022-09-25T05:45:36.176Z,97620.88
2022-09-25T05:48:07.919Z,97616.97
2022-09-25T05:50:35.321Z,97598.72
2022-09-25T05:53:04.163Z,97623.31
2022-09-25T05:55:31.283Z,97620.69
2022-09-25T05:58:04.789Z,97620.72
2022-09-25T06:00:36.680Z,97615.94
2022-09-25T06:03:05.363Z,97623.31
2022-09-25T06:05:32.504Z,97619.84
2022-09-25T06:07:59.083Z,97611.81
2022-09-25T06:10:26.835Z,97630.69
2022-09-25T06:12:59.009Z,97617.13
2022-09-25T06:15:30.417Z,97640.94
2022-09-25T06:17:56.932Z,97635.22
2022-09-25T06:20:24.376Z,97644.47
2022-09-25T06:22:57.749Z,97647.13
2022-09-25T06:25:26.785Z,97639.97
2022-09-25T06:27:57.506Z,97639.34
2022-09-25T06:30:27.525Z,97633.78
2022-09-25T06:33:01.569Z,97625.38
2022-09-25T06:35:31.990Z,97627.66
2022-09-25T06:37:59.578Z,97635.63
2022-09-25T06:40:28.205Z,97625.00
2022-09-25T06:43:02.756Z,97633.81
2022-09-25T06:45:33.472Z,97650.44
2022-09-25T06:48:10.119Z,97655.78
2022-09-25T06:50:42.588Z,97646.94
2022-09-25T06:53:11.156Z,97635.84
2022-09-25T06:55:37.910Z,97661.09
2022-09-25T06:58:08.657Z,97646.09
2022-09-25T07:00:35.362Z,97636.63
2022-09-25T07:03:20.820Z,97656.31
2022-09-25T07:05:48.379Z,97642.34
2022-09-25T07:08:17.234Z,97654.69
2022-09-25T07:10:51.214Z,97636.81
2022-09-25T07:13:19.176Z,97665.38
2022-09-25T07:15:57.698Z,97656.78
2022-09-25T07:18:25.353Z,97667.28
2022-09-25T07:20:52.917Z,97652.13
2022-09-25T07:23:22.467Z,97666.06
2022-09-25T07:25:49.702Z,97661.97
2022-09-25T07:28:19.302Z,97652.13
2022-09-25T07:30:47.369Z,97666.31
2022-09-25T07:33:14.668Z,97633.00
2022-09-25T07:35:58.305Z,97674.09
2022-09-25T07:38:25.636Z,97655.81
2022-09-25T07:41:05.810Z,97639.81
2022-09-25T07:43:52.578Z,97654.72
2022-09-25T07:46:25.494Z,97649.38
2022-09-25T07:48:52.425Z,97678.13
2022-09-25T07:51:19.529Z,97684.69
2022-09-25T07:53:46.040Z,97681.19
2022-09-25T07:56:12.581Z,97682.22
2022-09-25T07:58:39.186Z,97673.56
2022-09-25T08:01:09.379Z,97691.47
2022-09-25T08:03:36.031Z,97695.16
2022-09-25T08:06:03.890Z,97695.78
2022-09-25T08:08:31.360Z,97694.97
2022-09-25T08:11:03.327Z,97699.88
2022-09-25T08:13:32.417Z,97678.31
2022-09-25T08:16:01.716Z,97698.66
2022-09-25T08:18:28.420Z,97691.03
2022-09-25T08:20:55.010Z,97693.72
2022-09-25T08:23:21.572Z,97695.38
2022-09-25T08:25:51.722Z,97687.56
2022-09-25T08:28:18.361Z,97711.78
2022-09-25T08:30:44.999Z,97713.63
2022-09-25T08:33:15.757Z,97710.53
2022-09-25T08:35:43.450Z,97717.72
2022-09-25T08:38:13.946Z,97695.13
2022-09-25T08:40:58.324Z,97700.91
2022-09-25T08:43:26.137Z,97711.81
2022-09-25T08:46:13.862Z,97713.66
2022-09-25T08:49:14.019Z,97695.81
2022-09-25T08:51:49.642Z,97691.91
2022-09-25T08:54:23.980Z,97689.63
2022-09-25T08:56:57.211Z,97719.16
2022-09-25T08:59:30.871Z,97724.69
2022-09-25T09:02:03.958Z,97722.78
2022-09-25T09:04:48.889Z,97714.38
2022-09-25T09:07:26.971Z,97703.13
2022-09-25T09:10:29.052Z,97730.63
2022-09-25T09:13:09.768Z,97721.19
2022-09-25T09:16:00.937Z,97724.44
2022-09-25T09:18:32.742Z,97720.75
2022-09-25T09:21:10.748Z,97723.56
2022-09-25T09:23:58.635Z,97715.63
2022-09-25T09:27:04.255Z,97716.25
2022-09-25T09:29:55.047Z,97717.16
2022-09-25T09:32:34.050Z,97713.16
2022-09-25T09:35:17.512Z,97713.94
2022-09-25T09:38:25.067Z,97716.47
2022-09-25T09:41:09.425Z,97717.66
2022-09-25T09:43:45.532Z,97712.44
2022-09-25T09:46:38.806Z,97714.56
2022-09-25T09:49:13.948Z,97703.25
2022-09-25T09:51:51.373Z,97698.91
2022-09-25T09:54:25.039Z,97700.63
2022-09-25T09:56:55.450Z,97709.97
2022-09-25T09:59:44.495Z,97705.22
2022-09-25T10:02:27.830Z,97692.81
2022-09-25T10:04:56.531Z,97705.53
2022-09-25T10:07:28.726Z,97684.69
2022-09-25T10:09:57.049Z,97694.25
2022-09-25T10:12:35.531Z,97708.84
2022-09-25T10:15:07.946Z,97687.53
2022-09-25T10:17:38.610Z,97691.19
2022-09-25T10:20:17.348Z,97699.25
2022-09-25T10:22:46.906Z,97700.66
2022-09-25T10:25:13.874Z,97700.66
2022-09-25T10:27:46.209Z,97692.03
2022-09-25T10:30:20.312Z,97703.34
2022-09-25T10:33:04.200Z,97709.25
2022-09-25T10:35:43.331Z,97704.59
2022-09-25T10:38:38.651Z,97701.91
2022-09-25T10:41:13.902Z,97704.91
2022-09-25T10:43:55.205Z,97702.97
2022-09-25T10:46:46.455Z,97706.66
2022-09-25T10:49:39.715Z,97687.97
2022-09-25T10:52:09.958Z,97710.09
2022-09-25T10:54:44.897Z,97714.47
2022-09-25T10:57:35.349Z,97707.31
2022-09-25T11:00:19.139Z,97719.31
2022-09-25T11:02:46.914Z,97699.25
2022-09-25T11:05:29.059Z,97717.50
2022-09-25T11:07:59.486Z,97718.97
2022-09-25T11:10:30.276Z,97708.75
2022-09-25T11:12:58.320Z,97716.63
2022-09-25T11:15:27.790Z,97718.91
2022-09-25T11:17:57.031Z,97726.25
2022-09-25T11:20:29.382Z,97718.75
2022-09-25T11:23:30.194Z,97723.47
2022-09-25T11:26:25.613Z,97718.84
2022-09-25T11:29:03.142Z,97719.31
2022-09-25T11:31:47.069Z,97721.94
2022-09-25T11:34:55.045Z,97730.31
2022-09-25T11:37:43.538Z,97729.59
2022-09-25T11:40:28.445Z,97723.91
2022-09-25T11:43:08.872Z,97716.91
2022-09-25T11:45:48.718Z,97719.03
2022-09-25T11:48:44.553Z,97726.56
2022-09-25T11:51:30.112Z,97717.88
2022-09-25T11:54:32.434Z,97719.28
2022-09-25T11:57:11.858Z,97725.63
2022-09-25T12:00:05.259Z,97707.84
2022-09-25T12:03:08.797Z,97707.66
2022-09-25T12:05:39.408Z,97704.50
2022-09-25T12:08:29.179Z,97704.41
2022-09-25T12:11:21.367Z,97695.47
2022-09-25T12:13:54.566Z,97704.38
2022-09-25T12:16:41.696Z,97699.03
2022-09-25T12:19:29.009Z,97704.59
2022-09-25T12:22:14.510Z,97702.84
2022-09-25T12:24:44.104Z,97695.47
2022-09-25T12:27:26.397Z,97702.19
2022-09-25T12:30:16.376Z,97694.91
2022-09-25T12:33:16.864Z,97697.63
2022-09-25T12:36:19.121Z,97696.03
2022-09-25T12:39:01.703Z,97688.75
2022-09-25T12:41:46.495Z,97687.91
2022-09-25T12:44:23.589Z,97690.78
2022-09-25T12:47:09.813Z,97684.63
2022-09-25T12:49:51.888Z,97659.00
2022-09-25T12:52:24.174Z,97692.41
2022-09-25T12:55:26.395Z,97691.28
2022-09-25T12:58:21.315Z,97698.75
2022-09-25T13:00:52.216Z,97684.56
2022-09-25T13:03:32.358Z,97693.22
2022-09-25T13:06:11.790Z,97692.81
2022-09-25T13:08:51.422Z,97689.91
2022-09-25T13:11:30.644Z,97674.63
2022-09-25T13:13:58.593Z,97688.50
2022-09-25T13:16:25.921Z,97693.88
2022-09-25T13:19:23.682Z,97692.97
2022-09-25T13:21:50.322Z,97698.00
2022-09-25T13:24:18.234Z,97674.88
2022-09-25T13:26:50.790Z,97690.53
2022-09-25T13:29:35.577Z,97695.66
2022-09-25T13:32:16.959Z,97692.75
2022-09-25T13:34:43.979Z,97659.78
2022-09-25T13:37:13.084Z,97689.31
2022-09-25T13:40:06.363Z,97677.50
2022-09-25T13:42:53.276Z,97682.50
2022-09-25T13:45:26.222Z,97699.09
2022-09-25T13:48:15.637Z,97678.88
2022-09-25T13:50:45.323Z,97685.19
2022-09-25T13:53:20.913Z,97695.50
2022-09-25T13:55:50.478Z,97697.88
2022-09-25T13:59:13.368Z,97700.00
2022-09-25T14:01:46.598Z,97690.00
2022-09-25T14:04:16.158Z,97703.19
2022-09-25T14:06:47.813Z,97702.28
2022-09-25T14:09:21.148Z,97687.81
2022-09-25T14:12:05.519Z,97685.91
2022-09-25T14:14:53.184Z,97686.97
2022-09-25T14:17:22.081Z,97697.47
2022-09-25T14:19:51.247Z,97684.88
2022-09-25T14:22:58.153Z,97692.13
2022-09-25T14:25:53.017Z,97689.56
2022-09-25T14:28:30.301Z,97689.78
2022-09-25T14:31:21.423Z,97695.16
2022-09-25T14:34:15.920Z,97692.94
2022-09-25T14:37:05.161Z,97691.53
2022-09-25T14:40:04.138Z,97685.00
2022-09-25T14:43:01.484Z,97684.09
2022-09-25T14:45:31.250Z,97684.41
2022-09-25T14:48:02.121Z,97678.22
2022-09-25T14:50:50.413Z,97659.97
2022-09-25T14:53:27.162Z,97675.03
2022-09-25T14:55:56.198Z,97690.91
2022-09-25T14:58:28.890Z,97679.56
2022-09-25T15:01:01.790Z,97686.91
2022-09-25T15:03:33.622Z,97682.38
2022-09-25T15:06:02.263Z,97692.16
2022-09-25T15:08:36.824Z,97692.16
2022-09-25T15:11:13.223Z,97687.94
2022-09-25T15:13:43.240Z,97681.97
2022-09-25T15:16:46.287Z,97668.38
2022-09-25T15:19:22.773Z,97685.56
2022-09-25T15:21:52.203Z,97674.28
2022-09-25T15:24:27.762Z,97673.69
2022-09-25T15:27:05.128Z,97680.91
2022-09-25T15:29:44.383Z,97684.28
2022-09-25T15:32:24.039Z,97676.38
2022-09-25T15:34:50.801Z,97678.22
2022-09-25T15:37:29.415Z,97682.97
2022-09-25T15:40:00.722Z,97679.69
2022-09-25T15:42:27.327Z,97672.91
2022-09-25T15:44:57.201Z,97670.53
2022-09-25T15:47:35.973Z,97686.56
2022-09-25T15:50:13.655Z,97683.06
2022-09-25T15:52:40.241Z,97678.69
2022-09-25T15:55:14.609Z,97662.97
2022-09-25T15:57:42.240Z,97696.59
2022-09-25T16:00:42.384Z,97694.81
2022-09-25T16:03:41.188Z,97695.72
2022-09-25T16:06:17.632Z,97696.53
2022-09-25T16:08:44.470Z,97702.16
2022-09-25T16:11:22.760Z,97707.28
2022-09-25T16:13:51.898Z,97685.94
2022-09-25T16:16:23.181Z,97665.44
2022-09-25T16:18:54.586Z,97699.53
2022-09-25T16:21:34.657Z,97694.78
2022-09-25T16:24:06.632Z,97694.81
2022-09-25T16:26:45.324Z,97673.06
2022-09-25T16:29:11.902Z,97690.53
2022-09-25T16:31:42.002Z,97686.84
2022-09-25T16:34:18.435Z,97695.41
2022-09-25T16:36:45.813Z,97699.13
2022-09-25T16:39:21.102Z,97701.94
2022-09-25T16:41:49.498Z,97700.66
2022-09-25T16:44:39.811Z,97702.69
2022-09-25T16:47:12.745Z,97713.75
2022-09-25T16:49:43.789Z,97715.41
2022-09-25T16:52:20.871Z,97721.78
2022-09-25T16:54:53.080Z,97699.59
2022-09-25T16:57:24.407Z,97724.28
2022-09-25T16:59:54.364Z,97710.75
2022-09-25T17:02:37.144Z,97719.00
2022-09-25T17:05:10.435Z,97732.75
2022-09-25T17:07:36.980Z,97734.22
2022-09-25T17:10:04.078Z,97725.00
2022-09-25T17:12:31.492Z,97725.19
2022-09-25T17:14:58.612Z,97727.91
2022-09-25T17:17:25.169Z,97729.78
2022-09-25T17:19:51.639Z,97725.69
2022-09-25T17:22:18.230Z,97724.69
2022-09-25T17:24:44.893Z,97737.22
2022-09-25T17:27:16.155Z,97732.13
2022-09-25T17:29:43.093Z,97738.53
2022-09-25T17:32:18.683Z,97743.44
2022-09-25T17:34:46.241Z,97737.69
2022-09-25T17:37:12.810Z,97748.56
2022-09-25T17:39:42.654Z,97757.22
2022-09-25T17:42:11.481Z,97748.16
2022-09-25T17:44:42.594Z,97743.41
2022-09-25T17:47:13.239Z,97759.25
2022-09-25T17:49:42.762Z,97756.56
2022-09-25T17:52:16.730Z,97748.75
2022-09-25T17:54:43.361Z,97764.13
2022-09-25T17:57:12.546Z,97756.97
2022-09-25T17:59:41.335Z,97767.19
2022-09-25T18:02:15.802Z,97771.69
2022-09-25T18:04:44.669Z,97749.47
2022-09-25T18:07:11.184Z,97759.97
2022-09-25T18:09:37.742Z,97776.38
2022-09-25T18:12:04.893Z,97777.81
2022-09-25T18:14:34.102Z,97772.66
2022-09-25T18:17:00.616Z,97787.44
2022-09-25T18:19:45.700Z,97782.69
2022-09-25T18:22:18.863Z,97795.81
2022-09-25T18:24:52.835Z,97790.97
2022-09-25T18:27:20.260Z,97783.31
2022-09-25T18:29:47.328Z,97785.81
2022-09-25T18:32:14.444Z,97781.28
2022-09-25T18:34:44.206Z,97768.53
2022-09-25T18:37:12.029Z,97800.34
2022-09-25T18:39:38.927Z,97799.72
2022-09-25T18:42:05.612Z,97782.72
2022-09-25T18:44:38.471Z,97785.38
2022-09-25T18:47:08.290Z,97799.72
2022-09-25T18:49:35.622Z,97783.47
2022-09-25T18:52:02.445Z,97790.66
2022-09-25T18:54:29.201Z,97778.03
2022-09-25T18:56:58.434Z,97808.84
2022-09-25T18:59:28.770Z,97816.22
2022-09-25T19:01:55.894Z,97795.22
2022-09-25T19:04:23.235Z,97812.88
2022-09-25T19:06:49.842Z,97822.69
2022-09-25T19:09:17.483Z,97821.22
2022-09-25T19:11:45.308Z,97831.47
2022-09-25T19:14:14.960Z,97829.41
2022-09-25T19:16:43.953Z,97827.44
2022-09-25T19:19:13.907Z,97824.59
2022-09-25T19:21:44.373Z,97837.09
2022-09-25T19:24:14.768Z,97838.94
2022-09-25T19:26:44.228Z,97824.69
2022-09-25T19:29:13.608Z,97806.16
2022-09-25T19:31:40.763Z,97832.22
2022-09-25T19:34:07.552Z,97827.47
2022-09-25T19:36:34.890Z,97843.25
2022-09-25T19:39:02.243Z,97828.38
2022-09-25T19:41:31.945Z,97825.25
2022-09-25T19:44:03.556Z,97857.56
2022-09-25T19:46:32.086Z,97846.09
2022-09-25T19:48:59.218Z,97849.53
2022-09-25T19:51:26.157Z,97858.97
2022-09-25T19:53:53.690Z,97848.28
2022-09-25T19:56:20.937Z,97831.69
2022-09-25T19:58:50.753Z,97851.63
2022-09-25T20:01:20.837Z,97854.66
2022-09-25T20:03:48.443Z,97855.47
2022-09-25T20:06:16.134Z,97858.66
2022-09-25T20:08:46.895Z,97851.44
2022-09-25T20:11:21.894Z,97856.91
2022-09-25T20:13:50.908Z,97857.03
2022-09-25T20:16:20.232Z,97816.13
2022-09-25T20:18:53.056Z,97838.63
2022-09-25T20:21:23.203Z,97850.66
2022-09-25T20:23:55.096Z,97861.03
2022-09-25T20:26:23.336Z,97863.41
2022-09-25T20:29:03.938Z,97855.09
2022-09-25T20:31:32.776Z,97862.31
2022-09-25T20:34:00.054Z,97855.88
2022-09-25T20:36:27.097Z,97844.28
2022-09-25T20:38:55.882Z,97850.94
2022-09-25T20:41:24.126Z,97855.78
2022-09-25T20:43:53.859Z,97852.13
2022-09-25T20:46:21.488Z,97858.00
2022-09-25T20:48:51.129Z,97852.50
2022-09-25T20:51:27.368Z,97839.69
2022-09-25T20:54:00.653Z,97832.81
2022-09-25T20:56:29.385Z,97848.72
2022-09-25T20:58:57.292Z,97853.88
2022-09-25T21:01:27.356Z,97851.28
2022-09-25T21:03:54.820Z,97851.28
2022-09-25T21:06:24.008Z,97851.94
2022-09-25T21:08:56.655Z,97848.19
2022-09-25T21:11:25.013Z,97855.09
2022-09-25T21:13:53.584Z,97848.34
2022-09-25T21:16:22.294Z,97856.72
2022-09-25T21:18:54.944Z,97852.88
2022-09-25T21:21:23.133Z,97859.38
2022-09-25T21:23:51.846Z,97835.47
2022-09-25T21:26:18.867Z,97850.56
2022-09-25T21:28:51.593Z,97855.97
2022-09-25T21:31:27.220Z,97852.94
2022-09-25T21:33:55.290Z,97840.81
2022-09-25T21:36:22.259Z,97849.72
2022-09-25T21:38:49.402Z,97827.91
2022-09-25T21:41:22.558Z,97817.09
2022-09-25T21:43:53.723Z,97839.53
2022-09-25T21:46:20.957Z,97815.34
2022-09-25T21:49:02.190Z,97841.75
2022-09-25T21:51:31.662Z,97842.94
2022-09-25T21:53:58.447Z,97825.63
2022-09-25T21:56:26.906Z,97849.81
2022-09-25T21:58:55.518Z,97846.25
2022-09-25T22:01:26.223Z,97832.31
2022-09-25T22:03:55.438Z,97847.59
2022-09-25T22:06:26.377Z,97835.03
2022-09-25T22:08:56.598Z,97845.38
2022-09-25T22:11:23.519Z,97829.53
2022-09-25T22:13:51.411Z,97845.44
2022-09-25T22:16:23.943Z,97849.06
2022-09-25T22:18:55.407Z,97841.63
2022-09-25T22:21:24.333Z,97841.91
2022-09-25T22:23:51.490Z,97835.75
2022-09-25T22:26:22.348Z,97834.75
2022-09-25T22:28:49.913Z,97837.00
2022-09-25T22:31:22.811Z,97811.47
2022-09-25T22:33:54.501Z,97828.75
2022-09-25T22:36:21.280Z,97825.94
2022-09-25T22:38:50.025Z,97804.31
2022-09-25T22:41:16.786Z,97806.84
2022-09-25T22:43:43.932Z,97808.78
2022-09-25T22:46:12.438Z,97806.13
2022-09-25T22:48:39.399Z,97807.13
2022-09-25T22:51:10.066Z,97808.19
2022-09-25T22:53:37.054Z,97800.41
2022-09-25T22:59:12.788Z,97799.41
2022-09-25T23:01:43.573Z,97774.28
2022-09-25T23:04:13.651Z,97785.56
2022-09-25T23:06:40.542Z,97779.16
2022-09-25T23:09:10.666Z,97794.94
2022-09-25T23:11:37.500Z,97777.34
2022-09-25T23:14:07.933Z,97768.34
2022-09-25T23:16:35.436Z,97788.44
2022-09-25T23:19:02.385Z,97779.25
2022-09-25T23:21:30.497Z,97769.53
2022-09-25T23:24:06.961Z,97771.06
2022-09-25T23:26:34.275Z,97764.28
2022-09-25T23:29:04.120Z,97762.63
2022-09-25T23:31:32.805Z,97768.69
2022-09-25T23:34:01.004Z,97776.50
2022-09-25T23:36:28.755Z,97780.88
2022-09-25T23:38:56.564Z,97774.69
2022-09-25T23:41:31.269Z,97780.94
2022-09-25T23:43:59.672Z,97764.88
2022-09-25T23:46:28.714Z,97774.00
2022-09-25T23:48:56.818Z,97778.94
2022-09-25T23:51:27.304Z,97756.94
2022-09-25T23:53:55.540Z,97770.97
2022-09-25T23:56:25.274Z,97756.34
2022-09-25T23:58:52.759Z,97758.66
